createdAt,value
2016-05-15T00:00:53.624Z,57.43
2016-05-15T00:01:53.658Z,57.81
2016-05-15T00:02:53.692Z,57.52
2016-05-15T00:03:54.086Z,57.81
2016-05-15T00:04:53.761Z,58.37
2016-05-15T00:05:53.794Z,58
2016-05-15T00:06:53.844Z,58.18
2016-05-15T00:07:53.877Z,58.28
2016-05-15T00:08:53.942Z,58
2016-05-15T00:09:53.945Z,58.09
2016-05-15T00:10:53.980Z,58.57
2016-05-15T00:11:54.045Z,58.28
2016-05-15T00:12:54.063Z,58.76
2016-05-15T00:13:54.081Z,58.85
2016-05-15T00:14:54.131Z,59.14
2016-05-15T00:15:54.165Z,59.14
2016-05-15T00:16:54.214Z,58.85
2016-05-15T00:17:54.233Z,59.61
2016-05-15T00:18:54.626Z,59.42
2016-05-15T00:19:54.300Z,60.18
2016-05-15T00:20:54.334Z,59.99
2016-05-15T00:21:54.384Z,60.18
2016-05-15T00:22:54.246Z,60.09
2016-05-15T00:23:54.453Z,59.71
2016-05-15T00:24:54.486Z,59.9
2016-05-15T00:25:54.520Z,59.9
2016-05-15T00:26:54.553Z,59.9
2016-05-15T00:27:54.619Z,59.9
2016-05-15T00:28:54.621Z,59.8
2016-05-15T00:29:54.702Z,59.71
2016-05-15T00:30:54.705Z,59.8
2016-05-15T00:31:54.755Z,59.9
2016-05-15T00:32:54.789Z,59.9
2016-05-15T00:33:55.026Z,59.99
2016-05-15T00:34:54.857Z,59.8
2016-05-15T00:35:54.874Z,59.8
2016-05-15T00:36:54.768Z,59.61
2016-05-15T00:37:54.974Z,60.18
2016-05-15T00:38:55.007Z,59.9
2016-05-15T00:39:55.010Z,60.28
2016-05-15T00:40:55.060Z,60.75
2016-05-15T00:41:55.093Z,60.57
2016-05-15T00:42:55.143Z,60.38
2016-05-15T00:43:55.162Z,60.75
2016-05-15T00:44:55.212Z,60.66
2016-05-15T00:45:55.245Z,60.82
2016-05-15T00:46:55.264Z,60.75
2016-05-15T00:47:55.298Z,60.75
2016-05-15T00:48:55.347Z,60.35
2016-05-15T00:49:55.226Z,60.47
2016-05-15T00:50:55.415Z,61.13
2016-05-15T00:51:55.481Z,60.66
2016-05-15T00:52:55.498Z,60.38
2016-05-15T00:53:55.533Z,60.57
2016-05-15T00:54:55.566Z,60.38
2016-05-15T00:55:55.600Z,60.47
2016-05-15T00:56:55.634Z,60.57
2016-05-15T00:57:55.716Z,60.57
2016-05-15T00:58:55.546Z,60.66
2016-05-15T00:59:55.580Z,60.53
2016-05-15T01:00:55.802Z,60.72
2016-05-15T01:01:55.804Z,60.44
2016-05-15T01:02:55.854Z,60.63
2016-05-15T01:03:56.247Z,60.35
2016-05-15T01:04:55.953Z,60.35
2016-05-15T01:05:55.955Z,60.25
2016-05-15T01:06:56.005Z,60.44
2016-05-15T01:07:56.071Z,60.53
2016-05-15T01:08:56.057Z,60.25
2016-05-15T01:09:56.107Z,60.53
2016-05-15T01:10:56.141Z,60.35
2016-05-15T01:11:56.222Z,60.91
2016-05-15T01:12:56.209Z,60.72
2016-05-15T01:13:56.243Z,61.2
2016-05-15T01:14:56.276Z,61.01
2016-05-15T01:15:56.326Z,60.91
2016-05-15T01:16:56.360Z,61.29
2016-05-15T01:17:56.394Z,61.2
2016-05-15T01:18:56.287Z,61.01
2016-05-15T01:19:56.462Z,61.01
2016-05-15T01:20:56.511Z,61.29
2016-05-15T01:21:56.546Z,61.1
2016-05-15T01:22:56.423Z,61.2
2016-05-15T01:23:56.661Z,61.01
2016-05-15T01:24:56.631Z,60.82
2016-05-15T01:25:56.681Z,60.82
2016-05-15T01:26:56.762Z,60.53
2016-05-15T01:27:56.733Z,60.72
2016-05-15T01:28:56.799Z,60.82
2016-05-15T01:29:56.817Z,60.91
2016-05-15T01:30:56.850Z,60.53
2016-05-15T01:31:56.885Z,61.2
2016-05-15T01:32:56.919Z,61.39
2016-05-15T01:33:57.391Z,61.01
2016-05-15T01:34:57.065Z,61.48
2016-05-15T01:35:56.864Z,61.01
2016-05-15T01:36:57.086Z,61.1
2016-05-15T01:37:57.104Z,60.91
2016-05-15T01:38:57.138Z,60.82
2016-05-15T01:39:57.172Z,61.01
2016-05-15T01:40:57.221Z,60.72
2016-05-15T01:41:57.240Z,60.72
2016-05-15T01:42:57.273Z,61.1
2016-05-15T01:43:57.307Z,61.2
2016-05-15T01:44:57.357Z,61.01
2016-05-15T01:45:57.406Z,60.72
2016-05-15T01:46:57.425Z,61.2
2016-05-15T01:47:57.459Z,61.2
2016-05-15T01:48:57.806Z,61.29
2016-05-15T01:49:57.527Z,61.68
2016-05-15T01:50:57.404Z,61.77
2016-05-15T01:51:57.595Z,61.68
2016-05-15T01:52:57.659Z,61.68
2016-05-15T01:53:57.695Z,62.02
2016-05-15T01:54:57.697Z,61.96
2016-05-15T01:55:57.731Z,61.77
2016-05-15T01:56:57.764Z,61.87
2016-05-15T01:57:57.658Z,61.74
2016-05-15T01:58:57.676Z,61.93
2016-05-15T01:59:57.928Z,62.4
2016-05-15T02:00:57.916Z,62.24
2016-05-15T02:01:57.966Z,62.5
2016-05-15T02:02:58.000Z,62.31
2016-05-15T02:03:58.064Z,62.59
2016-05-15T02:04:58.067Z,63.07
2016-05-15T02:05:58.085Z,62.4
2016-05-15T02:06:57.979Z,62.97
2016-05-15T02:07:58.013Z,63.35
2016-05-15T02:08:58.202Z,62.97
2016-05-15T02:09:58.081Z,63.45
2016-05-15T02:10:58.302Z,62.97
2016-05-15T02:11:58.321Z,63.17
2016-05-15T02:12:58.338Z,63.35
2016-05-15T02:13:58.374Z,63.45
2016-05-15T02:14:58.407Z,63.73
2016-05-15T02:15:58.440Z,63.83
2016-05-15T02:16:58.319Z,63.35
2016-05-15T02:17:58.509Z,63.26
2016-05-15T02:18:58.589Z,63.45
2016-05-15T02:19:58.593Z,64.11
2016-05-15T02:20:58.610Z,64.3
2016-05-15T02:21:58.660Z,64.3
2016-05-15T02:22:58.709Z,64.11
2016-05-15T02:23:58.728Z,64.21
2016-05-15T02:24:58.746Z,64.49
2016-05-15T02:25:58.780Z,64.02
2016-05-15T02:26:58.845Z,64.3
2016-05-15T02:27:58.864Z,64.4
2016-05-15T02:28:58.898Z,64.3
2016-05-15T02:29:58.978Z,64.49
2016-05-15T02:30:58.809Z,64.11
2016-05-15T02:31:58.999Z,64.4
2016-05-15T02:32:59.034Z,64.3
2016-05-15T02:33:59.255Z,64.49
2016-05-15T02:34:59.101Z,64.3
2016-05-15T02:35:59.135Z,64.4
2016-05-15T02:36:59.169Z,64.21
2016-05-15T02:37:59.250Z,64.49
2016-05-15T02:38:59.237Z,64.4
2016-05-15T02:39:59.286Z,64.4
2016-05-15T02:40:59.336Z,64.4
2016-05-15T02:41:59.354Z,64.3
2016-05-15T02:42:59.373Z,64.69
2016-05-15T02:43:59.422Z,64.78
2016-05-15T02:44:59.504Z,64.87
2016-05-15T02:45:59.490Z,64.78
2016-05-15T02:46:59.524Z,65.06
2016-05-15T02:47:59.557Z,65.06
2016-05-15T02:48:59.607Z,65.16
2016-05-15T02:49:59.626Z,64.87
2016-05-15T02:50:59.659Z,64.78
2016-05-15T02:51:59.694Z,64.84
2016-05-15T02:52:59.743Z,64.75
2016-05-15T02:53:59.761Z,65.03
2016-05-15T02:54:59.842Z,65.03
2016-05-15T02:55:59.861Z,64.49
2016-05-15T02:56:59.864Z,65.06
2016-05-15T02:57:59.897Z,64.75
2016-05-15T02:58:59.932Z,64.69
2016-05-15T02:59:59.965Z,64.56
2016-05-15T03:01:00.014Z,64.84
2016-05-15T03:01:59.877Z,64.65
2016-05-15T03:03:00.114Z,65.12
2016-05-15T03:04:00.554Z,64.56
2016-05-15T03:05:00.150Z,64.65
2016-05-15T03:06:00.216Z,64.56
2016-05-15T03:07:00.234Z,64.46
2016-05-15T03:08:00.252Z,64.84
2016-05-15T03:09:00.286Z,64.65
2016-05-15T03:10:00.321Z,64.49
2016-05-15T03:11:00.354Z,64.17
2016-05-15T03:12:00.388Z,64.08
2016-05-15T03:13:00.422Z,64.27
2016-05-15T03:14:00.488Z,64.27
2016-05-15T03:15:00.521Z,64.56
2016-05-15T03:16:00.540Z,64.56
2016-05-15T03:17:00.590Z,64.56
2016-05-15T03:18:00.638Z,64.27
2016-05-15T03:19:00.907Z,64.46
2016-05-15T03:20:00.659Z,64.65
2016-05-15T03:21:00.710Z,64.08
2016-05-15T03:22:00.728Z,64.27
2016-05-15T03:23:00.620Z,64.27
2016-05-15T03:24:00.812Z,64.37
2016-05-15T03:25:00.861Z,64.17
2016-05-15T03:26:00.738Z,63.98
2016-05-15T03:27:00.757Z,64.46
2016-05-15T03:28:00.962Z,64.27
2016-05-15T03:29:00.997Z,64.08
2016-05-15T03:30:01.014Z,64.11
2016-05-15T03:31:01.048Z,64.02
2016-05-15T03:32:01.083Z,64.08
2016-05-15T03:33:00.960Z,63.92
2016-05-15T03:34:01.181Z,64.08
2016-05-15T03:35:01.200Z,63.98
2016-05-15T03:36:01.250Z,63.89
2016-05-15T03:37:01.252Z,63.7
2016-05-15T03:38:01.302Z,63.89
2016-05-15T03:39:01.352Z,63.98
2016-05-15T03:40:01.369Z,63.83
2016-05-15T03:41:01.404Z,64.3
2016-05-15T03:42:01.266Z,64.02
2016-05-15T03:43:01.503Z,63.89
2016-05-15T03:44:01.505Z,63.83
2016-05-15T03:45:01.554Z,63.35
2016-05-15T03:46:01.574Z,63.79
2016-05-15T03:47:01.607Z,63.35
2016-05-15T03:48:01.484Z,63.35
2016-05-15T03:49:01.551Z,63.54
2016-05-15T03:50:01.554Z,62.97
2016-05-15T03:51:01.774Z,63.45
2016-05-15T03:52:01.792Z,63.26
2016-05-15T03:53:01.812Z,62.88
2016-05-15T03:54:01.876Z,62.97
2016-05-15T03:55:01.894Z,62.97
2016-05-15T03:56:01.913Z,63.35
2016-05-15T03:57:01.962Z,62.69
2016-05-15T03:58:02.059Z,62.88
2016-05-15T03:59:02.045Z,62.5
2016-05-15T04:00:02.064Z,62.69
2016-05-15T04:01:02.083Z,62.59
2016-05-15T04:02:02.163Z,62.31
2016-05-15T04:03:02.025Z,62.31
2016-05-15T04:04:02.059Z,62.02
2016-05-15T04:05:02.281Z,62.31
2016-05-15T04:06:02.267Z,61.93
2016-05-15T04:07:02.302Z,61.74
2016-05-15T04:08:02.367Z,61.65
2016-05-15T04:09:02.416Z,61.83
2016-05-15T04:10:02.403Z,62.15
2016-05-15T04:11:02.469Z,61.45
2016-05-15T04:12:02.503Z,61.39
2016-05-15T04:13:02.396Z,61.39
2016-05-15T04:14:02.554Z,61.36
2016-05-15T04:15:02.589Z,61.17
2016-05-15T04:16:02.607Z,61.39
2016-05-15T04:17:02.656Z,61.17
2016-05-15T04:18:02.535Z,61.29
2016-05-15T04:19:02.724Z,61.2
2016-05-15T04:20:02.759Z,61.2
2016-05-15T04:21:02.808Z,60.72
2016-05-15T04:22:02.827Z,61.39
2016-05-15T04:23:02.923Z,61.2
2016-05-15T04:24:02.894Z,61.39
2016-05-15T04:25:02.929Z,61.2
2016-05-15T04:26:03.009Z,60.82
2016-05-15T04:27:03.028Z,61.01
2016-05-15T04:28:03.045Z,61.29
2016-05-15T04:29:03.079Z,62.05
2016-05-15T04:30:03.114Z,62.43
2016-05-15T04:31:03.006Z,62.72
2016-05-15T04:32:03.181Z,62.15
2016-05-15T04:33:03.215Z,62.43
2016-05-15T04:34:03.109Z,63.01
2016-05-15T04:35:03.283Z,63.2
2016-05-15T04:36:03.317Z,63.39
2016-05-15T04:37:03.351Z,62.43
2016-05-15T04:38:03.432Z,62.62
2016-05-15T04:39:03.435Z,63.01
2016-05-15T04:40:03.469Z,63.01
2016-05-15T04:41:03.502Z,62.53
2016-05-15T04:42:03.536Z,62.81
2016-05-15T04:43:03.571Z,62.53
2016-05-15T04:44:03.604Z,62.91
2016-05-15T04:45:03.669Z,62.81
2016-05-15T04:46:03.671Z,63.29
2016-05-15T04:47:03.722Z,63.01
2016-05-15T04:48:03.740Z,63.2
2016-05-15T04:49:03.821Z,63.57
2016-05-15T04:50:03.808Z,62.72
2016-05-15T04:51:03.857Z,63.1
2016-05-15T04:52:03.907Z,62.91
2016-05-15T04:53:03.926Z,63.2
2016-05-15T04:54:03.959Z,63.01
2016-05-15T04:55:03.993Z,63.57
2016-05-15T04:56:03.871Z,63.39
2016-05-15T04:57:04.062Z,63.48
2016-05-15T04:58:04.095Z,63.86
2016-05-15T04:59:04.145Z,63.95
2016-05-15T05:00:04.006Z,63.48
2016-05-15T05:01:04.197Z,63.67
2016-05-15T05:02:04.075Z,63.95
2016-05-15T05:03:04.108Z,63.86
2016-05-15T05:04:04.737Z,64.24
2016-05-15T05:05:04.348Z,64.24
2016-05-15T05:06:04.382Z,64.43
2016-05-15T05:07:04.292Z,64.34
2016-05-15T05:08:04.325Z,64.53
2016-05-15T05:09:04.483Z,64.34
2016-05-15T05:10:04.519Z,64.34
2016-05-15T05:11:04.396Z,64.34
2016-05-15T05:12:04.586Z,64.53
2016-05-15T05:13:04.619Z,64.53
2016-05-15T05:14:04.669Z,64.43
2016-05-15T05:15:04.688Z,64.81
2016-05-15T05:16:04.721Z,65.09
2016-05-15T05:17:04.615Z,64.34
2016-05-15T05:18:04.821Z,65
2016-05-15T05:19:04.839Z,64.9
2016-05-15T05:20:04.857Z,64.9
2016-05-15T05:21:04.907Z,64.14
2016-05-15T05:22:04.926Z,64.34
2016-05-15T05:23:04.959Z,64.53
2016-05-15T05:24:05.024Z,64.72
2016-05-15T05:25:05.058Z,65.09
2016-05-15T05:26:04.952Z,64.53
2016-05-15T05:27:04.970Z,64.43
2016-05-15T05:28:05.159Z,64.43
2016-05-15T05:29:05.195Z,64.14
2016-05-15T05:30:05.243Z,64.34
2016-05-15T05:31:05.105Z,64.53
2016-05-15T05:32:05.295Z,64.14
2016-05-15T05:33:05.331Z,64.34
2016-05-15T05:34:05.879Z,64.43
2016-05-15T05:35:05.397Z,65.09
2016-05-15T05:36:05.464Z,64.9
2016-05-15T05:37:05.481Z,64.9
2016-05-15T05:38:05.499Z,64.72
2016-05-15T05:39:05.533Z,65
2016-05-15T05:40:05.599Z,65.67
2016-05-15T05:41:05.461Z,66.05
2016-05-15T05:42:05.650Z,65.09
2016-05-15T05:43:05.685Z,64.9
2016-05-15T05:44:05.735Z,65.76
2016-05-15T05:45:05.768Z,66.24
2016-05-15T05:46:05.630Z,65.67
2016-05-15T05:47:05.821Z,66.14
2016-05-15T05:48:05.746Z,66.24
2016-05-15T05:49:05.904Z,66.05
2016-05-15T05:50:05.938Z,66.61
2016-05-15T05:51:05.957Z,65.95
2016-05-15T05:52:06.052Z,66.24
2016-05-15T05:53:06.040Z,66.05
2016-05-15T05:54:06.074Z,66.71
2016-05-15T05:55:05.951Z,66.42
2016-05-15T05:56:06.157Z,67.19
2016-05-15T05:57:06.176Z,66.61
2016-05-15T05:58:06.225Z,67.19
2016-05-15T05:59:06.259Z,67
2016-05-15T06:00:06.152Z,66.61
2016-05-15T06:01:06.327Z,67.57
2016-05-15T06:02:06.361Z,67.28
2016-05-15T06:03:06.457Z,66.52
2016-05-15T06:04:06.429Z,66.61
2016-05-15T06:05:06.462Z,66.42
2016-05-15T06:06:06.497Z,66.8
2016-05-15T06:07:06.562Z,66.9
2016-05-15T06:08:06.627Z,66.8
2016-05-15T06:09:06.442Z,67.38
2016-05-15T06:10:06.663Z,67.28
2016-05-15T06:11:06.683Z,67.28
2016-05-15T06:12:06.700Z,67.09
2016-05-15T06:13:06.594Z,66.9
2016-05-15T06:14:06.799Z,67.57
2016-05-15T06:15:06.818Z,67.76
2016-05-15T06:16:06.852Z,67.76
2016-05-15T06:17:06.901Z,67.85
2016-05-15T06:18:06.936Z,67.85
2016-05-15T06:19:07.297Z,67.57
2016-05-15T06:20:06.987Z,67.66
2016-05-15T06:21:07.022Z,67.76
2016-05-15T06:22:07.055Z,67.47
2016-05-15T06:23:07.104Z,67.76
2016-05-15T06:24:07.138Z,67.38
2016-05-15T06:25:07.173Z,67.57
2016-05-15T06:26:07.207Z,67.28
2016-05-15T06:27:07.084Z,67.38
2016-05-15T06:28:07.274Z,67.19
2016-05-15T06:29:07.309Z,67.38
2016-05-15T06:30:07.186Z,67.09
2016-05-15T06:31:07.376Z,66.9
2016-05-15T06:32:07.410Z,67.28
2016-05-15T06:33:07.476Z,67.19
2016-05-15T06:34:07.494Z,67.09
2016-05-15T06:35:07.512Z,67.19
2016-05-15T06:36:07.625Z,66.9
2016-05-15T06:37:07.595Z,67.09
2016-05-15T06:38:07.645Z,67.66
2016-05-15T06:39:07.663Z,67.76
2016-05-15T06:40:07.729Z,67.94
2016-05-15T06:41:07.731Z,67.57
2016-05-15T06:42:07.624Z,67.85
2016-05-15T06:43:07.800Z,68.23
2016-05-15T06:44:07.849Z,68.13
2016-05-15T06:45:07.883Z,68.42
2016-05-15T06:46:07.916Z,68.33
2016-05-15T06:47:07.967Z,68.23
2016-05-15T06:48:08.000Z,69.37
2016-05-15T06:49:08.065Z,69.46
2016-05-15T06:50:08.053Z,69.46
2016-05-15T06:51:08.118Z,69.75
2016-05-15T06:52:08.135Z,69.66
2016-05-15T06:53:08.170Z,69.94
2016-05-15T06:54:07.501Z,70.23
2016-05-15T06:55:08.238Z,70.42
2016-05-15T06:56:08.271Z,70.7
2016-05-15T06:57:08.306Z,71.18
2016-05-15T06:58:08.387Z,70.79
2016-05-15T06:59:08.373Z,70.61
2016-05-15T07:00:08.407Z,71.08
2016-05-15T07:01:08.442Z,71.27
2016-05-15T07:02:08.523Z,71.37
2016-05-15T07:03:08.525Z,71.75
2016-05-15T07:04:08.512Z,71.27
2016-05-15T07:05:08.593Z,71.84
2016-05-15T07:06:08.626Z,71.94
2016-05-15T07:07:08.660Z,72.22
2016-05-15T07:08:08.695Z,72.13
2016-05-15T07:09:08.728Z,72.03
2016-05-15T07:10:08.762Z,71.84
2016-05-15T07:11:08.796Z,72.03
2016-05-15T07:12:08.847Z,72.13
2016-05-15T07:13:08.708Z,72.79
2016-05-15T07:14:08.913Z,72.6
2016-05-15T07:15:08.948Z,72.51
2016-05-15T07:16:08.982Z,72.51
2016-05-15T07:17:09.000Z,72.89
2016-05-15T07:18:09.050Z,72.6
2016-05-15T07:19:09.568Z,72.79
2016-05-15T07:20:09.133Z,73.18
2016-05-15T07:21:09.166Z,72.51
2016-05-15T07:22:09.185Z,73.46
2016-05-15T07:23:09.219Z,73.18
2016-05-15T07:24:09.316Z,72.79
2016-05-15T07:25:09.287Z,73.55
2016-05-15T07:26:09.337Z,73.36
2016-05-15T07:27:09.402Z,73.21
2016-05-15T07:28:09.248Z,73.3
2016-05-15T07:29:09.438Z,73.59
2016-05-15T07:30:09.473Z,73.02
2016-05-15T07:31:09.523Z,73.02
2016-05-15T07:32:09.540Z,72.83
2016-05-15T07:33:09.590Z,72.35
2016-05-15T07:34:09.640Z,72.45
2016-05-15T07:35:09.673Z,73.02
2016-05-15T07:36:09.675Z,72.55
2016-05-15T07:37:09.726Z,71.69
2016-05-15T07:38:09.759Z,72.26
2016-05-15T07:39:09.814Z,72.26
2016-05-15T07:40:09.891Z,71.97
2016-05-15T07:41:09.969Z,72.45
2016-05-15T07:42:10.045Z,71.69
2016-05-15T07:43:10.138Z,71.88
2016-05-15T07:44:10.203Z,71.5
2016-05-15T07:45:10.253Z,71.59
2016-05-15T07:46:10.350Z,71.5
2016-05-15T07:47:10.352Z,71.12
2016-05-15T07:48:10.417Z,71.12
2016-05-15T07:49:10.681Z,70.64
2016-05-15T07:50:10.533Z,71.59
2016-05-15T07:51:10.556Z,71.69
2016-05-15T07:52:10.580Z,71.88
2016-05-15T07:53:21.089Z,72.26
2016-05-15T07:54:10.533Z,72.83
2016-05-15T07:55:10.740Z,72.64
2016-05-15T07:56:10.745Z,72.45
2016-05-15T07:57:10.796Z,71.88
2016-05-15T07:58:10.816Z,72.74
2016-05-15T07:59:10.851Z,72.64
2016-05-15T08:00:10.887Z,72.45
2016-05-15T08:01:10.921Z,72.64
2016-05-15T08:02:10.799Z,72.92
2016-05-15T08:03:11.006Z,73.02
2016-05-15T08:04:11.087Z,72.92
2016-05-15T08:05:11.059Z,73.4
2016-05-15T08:06:11.109Z,73.11
2016-05-15T08:07:11.160Z,73.11
2016-05-15T08:08:11.194Z,72.64
2016-05-15T08:09:11.212Z,72.45
2016-05-15T08:10:11.262Z,72.92
2016-05-15T08:11:11.311Z,72.92
2016-05-15T08:12:11.313Z,72.92
2016-05-15T08:13:11.379Z,73.02
2016-05-15T08:14:11.397Z,73.11
2016-05-15T08:15:11.447Z,73.11
2016-05-15T08:16:11.465Z,72.55
2016-05-15T08:17:11.515Z,72.92
2016-05-15T08:18:11.596Z,73.3
2016-05-15T08:19:11.582Z,73.11
2016-05-15T08:20:11.617Z,72.83
2016-05-15T08:21:11.651Z,72.92
2016-05-15T08:22:11.763Z,72.74
2016-05-15T08:23:11.718Z,72.83
2016-05-15T08:24:11.768Z,73.34
2016-05-15T08:25:11.787Z,72.64
2016-05-15T08:26:11.836Z,72.55
2016-05-15T08:27:11.854Z,72.92
2016-05-15T08:28:11.919Z,72.35
2016-05-15T08:29:12.017Z,72.74
2016-05-15T08:30:12.003Z,72.55
2016-05-15T08:31:12.021Z,72.64
2016-05-15T08:32:12.039Z,72.92
2016-05-15T08:33:12.089Z,72.92
2016-05-15T08:34:12.498Z,73.02
2016-05-15T08:35:12.000Z,73.49
2016-05-15T08:36:12.207Z,72.92
2016-05-15T08:37:12.272Z,72.92
2016-05-15T08:38:12.274Z,72.45
2016-05-15T08:39:12.294Z,72.64
2016-05-15T08:40:12.327Z,71.97
2016-05-15T08:41:12.391Z,72.64
2016-05-15T08:42:12.410Z,72.74
2016-05-15T08:43:12.444Z,72.58
2016-05-15T08:44:12.478Z,72.77
2016-05-15T08:45:12.512Z,71.72
2016-05-15T08:46:12.546Z,71.53
2016-05-15T08:47:12.596Z,71.34
2016-05-15T08:48:12.676Z,71.06
2016-05-15T08:49:13.445Z,71.63
2016-05-15T08:50:12.698Z,71.72
2016-05-15T08:51:12.763Z,70.97
2016-05-15T08:52:12.781Z,70.87
2016-05-15T08:53:12.815Z,70.68
2016-05-15T08:54:12.864Z,70.87
2016-05-15T08:55:12.914Z,70.87
2016-05-15T08:56:12.917Z,70.97
2016-05-15T08:57:12.982Z,70.68
2016-05-15T08:58:13.000Z,71.28
2016-05-15T08:59:13.050Z,71.19
2016-05-15T09:00:13.068Z,70.87
2016-05-15T09:01:13.102Z,71.86
2016-05-15T09:02:13.151Z,71.19
2016-05-15T09:03:13.186Z,71.19
2016-05-15T09:04:13.578Z,71.09
2016-05-15T09:05:13.301Z,71.19
2016-05-15T09:06:13.334Z,70.9
2016-05-15T09:07:13.368Z,70.52
2016-05-15T09:08:13.371Z,70.72
2016-05-15T09:09:13.404Z,70.14
2016-05-15T09:10:13.454Z,70.81
2016-05-15T09:11:13.473Z,70.14
2016-05-15T09:12:13.538Z,70.72
2016-05-15T09:13:13.555Z,70.65
2016-05-15T09:14:13.622Z,71.61
2016-05-15T09:15:13.624Z,71.03
2016-05-15T09:16:13.673Z,70.56
2016-05-15T09:17:13.707Z,70.81
2016-05-15T09:18:13.758Z,71.19
2016-05-15T09:19:13.791Z,70.72
2016-05-15T09:20:13.824Z,70.05
2016-05-15T09:21:13.702Z,70.43
2016-05-15T09:22:13.876Z,70.72
2016-05-15T09:23:13.927Z,70.72
2016-05-15T09:24:13.960Z,70.81
2016-05-15T09:25:14.026Z,70.05
2016-05-15T09:26:14.045Z,70.05
2016-05-15T09:27:14.078Z,70.05
2016-05-15T09:28:14.112Z,70.72
2016-05-15T09:29:14.162Z,70.81
2016-05-15T09:30:14.195Z,72.05
2016-05-15T09:31:14.229Z,72.14
2016-05-15T09:32:14.295Z,72.42
2016-05-15T09:33:14.297Z,71.95
2016-05-15T09:34:14.566Z,72.62
2016-05-15T09:35:14.381Z,72.71
2016-05-15T09:36:14.446Z,72.2
2016-05-15T09:37:14.292Z,73.1
2016-05-15T09:38:14.327Z,72.81
2016-05-15T09:39:14.392Z,72.81
2016-05-15T09:40:14.566Z,73.38
2016-05-15T09:41:14.585Z,72.62
2016-05-15T09:42:14.634Z,73.28
2016-05-15T09:43:14.699Z,72.9
2016-05-15T09:44:14.702Z,71.95
2016-05-15T09:45:14.579Z,72.05
2016-05-15T09:46:14.802Z,71.76
2016-05-15T09:47:14.851Z,71.19
2016-05-15T09:48:14.869Z,71.42
2016-05-15T09:49:14.887Z,71.13
2016-05-15T09:50:14.999Z,70.37
2016-05-15T09:51:14.971Z,70.27
2016-05-15T09:52:15.005Z,70.65
2016-05-15T09:53:15.038Z,70.65
2016-05-15T09:54:15.104Z,70.94
2016-05-15T09:55:15.106Z,70.84
2016-05-15T09:56:15.156Z,70.27
2016-05-15T09:57:15.221Z,69.99
2016-05-15T09:58:15.067Z,69.85
2016-05-15T09:59:15.259Z,70.62
2016-05-15T10:00:15.292Z,70.62
2016-05-15T10:01:15.342Z,71
2016-05-15T10:02:15.391Z,71.86
2016-05-15T10:03:15.409Z,71.42
2016-05-15T10:04:15.459Z,70.65
2016-05-15T10:05:15.352Z,69.99
2016-05-15T10:06:15.527Z,68.98
2016-05-15T10:07:15.561Z,68.59
2016-05-15T10:08:15.454Z,69.17
2016-05-15T10:09:15.675Z,67.16
2016-05-15T10:10:15.662Z,66.82
2016-05-15T10:11:15.711Z,66.53
2016-05-15T10:12:15.747Z,65.58
2016-05-15T10:13:15.796Z,64.53
2016-05-15T10:14:15.829Z,64.62
2016-05-15T10:15:15.864Z,64.72
2016-05-15T10:16:15.913Z,64.53
2016-05-15T10:17:15.932Z,65.2
2016-05-15T10:18:15.980Z,64.34
2016-05-15T10:19:16.016Z,64.34
2016-05-15T10:20:15.908Z,63.29
2016-05-15T10:21:16.099Z,64.15
2016-05-15T10:22:16.132Z,63.48
2016-05-15T10:23:16.181Z,63.2
2016-05-15T10:24:16.216Z,64.05
2016-05-15T10:25:16.265Z,63.39
2016-05-15T10:26:16.143Z,63.2
2016-05-15T10:27:16.317Z,62.81
2016-05-15T10:28:16.367Z,61.86
2016-05-15T10:29:16.417Z,63.2
2016-05-15T10:30:16.451Z,63.64
2016-05-15T10:31:16.812Z,64.12
2016-05-15T10:32:16.518Z,64.69
2016-05-15T10:33:16.553Z,64.59
2016-05-15T10:34:16.478Z,64.69
2016-05-15T10:35:16.792Z,64.12
2016-05-15T10:36:16.685Z,63.64
2016-05-15T10:37:16.704Z,64.4
2016-05-15T10:38:16.754Z,64.78
2016-05-15T10:39:16.787Z,64.97
2016-05-15T10:40:16.664Z,63.64
2016-05-15T10:41:16.856Z,62.3
2016-05-15T10:42:16.920Z,62.49
2016-05-15T10:43:16.939Z,62.05
2016-05-15T10:44:16.816Z,62.05
2016-05-15T10:45:17.007Z,61
2016-05-15T10:46:17.072Z,61.19
2016-05-15T10:47:17.091Z,61.19
2016-05-15T10:48:17.124Z,60.08
2016-05-15T10:49:17.158Z,59.12
2016-05-15T10:50:17.363Z,58.58
2016-05-15T10:51:17.258Z,56.1
2016-05-15T10:52:17.276Z,56.32
2016-05-15T10:53:17.356Z,55.94
2016-05-15T10:54:17.359Z,54.03
2016-05-15T10:55:17.408Z,52.62
2016-05-15T10:56:17.443Z,50.86
2016-05-15T10:57:17.507Z,49.45
2016-05-15T10:58:17.526Z,48.44
2016-05-15T10:59:17.575Z,45.72
2016-05-15T11:00:17.610Z,43.15
2016-05-15T11:01:17.643Z,41.06
2016-05-15T11:02:17.693Z,39.16
2016-05-15T11:03:17.742Z,39.54
2016-05-15T11:04:17.809Z,39.62
2016-05-15T11:05:18.247Z,40.2
2016-05-15T11:06:17.876Z,38.1
2016-05-15T11:07:17.909Z,36.22
2016-05-15T11:08:17.959Z,34.16
2016-05-15T11:09:17.992Z,31.6
2016-05-15T11:10:18.059Z,27.29
2016-05-15T11:11:18.139Z,28.19
2016-05-15T11:12:18.142Z,25.5
2016-05-15T11:13:18.191Z,25.82
2016-05-15T11:14:18.225Z,25.54
2016-05-15T11:15:18.305Z,23.23
2016-05-15T11:16:18.341Z,22.75
2016-05-15T11:17:18.374Z,23.23
2016-05-15T11:18:18.424Z,24.56
2016-05-15T11:19:18.488Z,24.81
2016-05-15T11:20:18.522Z,25.19
2016-05-15T11:21:18.416Z,26.21
2016-05-15T11:22:18.637Z,27.53
2016-05-15T11:23:18.655Z,28.56
2016-05-15T11:24:18.565Z,28.95
2016-05-15T11:25:18.598Z,28.78
2016-05-15T11:26:18.804Z,27.94
2016-05-15T11:27:28.120Z,27.89
2016-05-15T11:28:18.903Z,24.37
2016-05-15T11:29:18.953Z,23.5
2016-05-15T11:30:19.003Z,22.34
2016-05-15T11:31:19.037Z,21.86
2016-05-15T11:32:19.148Z,20.79
2016-05-15T11:33:19.136Z,21.54
2016-05-15T11:34:19.217Z,21.42
2016-05-15T11:35:19.423Z,21.81
2016-05-15T11:36:19.128Z,22.58
2016-05-15T11:37:19.334Z,22.76
2016-05-15T11:38:19.383Z,22.67
2016-05-15T11:39:19.433Z,23.72
2016-05-15T11:40:19.467Z,24.57
2016-05-15T11:41:19.517Z,25.04
2016-05-15T11:42:19.613Z,25.7
2016-05-15T11:43:19.725Z,25.52
2016-05-15T11:44:19.508Z,23.13
2016-05-15T11:45:19.700Z,21.51
2016-05-15T11:46:19.796Z,20.65
2016-05-15T11:47:19.799Z,21.81
2016-05-15T11:48:19.863Z,21.91
2016-05-15T11:49:19.913Z,23.52
2016-05-15T11:50:19.993Z,24.09
2016-05-15T11:51:19.997Z,25.13
2016-05-15T11:52:20.030Z,25.99
2016-05-15T11:53:20.127Z,25.98
2016-05-15T11:54:20.332Z,26.16
2016-05-15T11:55:20.179Z,26.92
2016-05-15T11:56:20.415Z,27.94
2016-05-15T11:57:20.263Z,28.5
2016-05-15T11:58:20.313Z,29.83
2016-05-15T11:59:20.346Z,30.41
2016-05-15T12:00:20.411Z,31.26
2016-05-15T12:01:20.429Z,31.63
2016-05-15T12:02:20.479Z,32.49
2016-05-15T12:03:20.529Z,32.39
2016-05-15T12:04:20.423Z,32.31
2016-05-15T12:05:20.612Z,32.62
2016-05-15T12:06:20.662Z,30.18
2016-05-15T12:07:20.711Z,26.95
2016-05-15T12:08:20.745Z,25.93
2016-05-15T12:09:20.795Z,23.17
2016-05-15T12:10:20.861Z,19.63
2016-05-15T12:11:20.925Z,19.83
2016-05-15T12:12:20.928Z,20.41
2016-05-15T12:13:20.994Z,21.17
2016-05-15T12:14:21.043Z,22.7
2016-05-15T12:15:21.092Z,23.25
2016-05-15T12:16:21.127Z,24.2
2016-05-15T12:17:21.175Z,25.23
2016-05-15T12:18:21.225Z,25.98
2016-05-15T12:19:21.274Z,27.4
2016-05-15T12:20:21.168Z,29.03
2016-05-15T12:21:21.359Z,30.05
2016-05-15T12:22:21.424Z,31.29
2016-05-15T12:23:21.442Z,31.75
2016-05-15T12:24:21.491Z,32.71
2016-05-15T12:25:21.572Z,33.08
2016-05-15T12:26:21.574Z,33.92
2016-05-15T12:27:21.610Z,34.79
2016-05-15T12:28:21.705Z,34.88
2016-05-15T12:29:21.708Z,35.73
2016-05-15T12:30:21.585Z,36.21
2016-05-15T12:31:21.807Z,37.16
2016-05-15T12:32:21.841Z,37.53
2016-05-15T12:33:21.876Z,38.39
2016-05-15T12:34:22.659Z,38.66
2016-05-15T12:35:21.959Z,38.66
2016-05-15T12:36:22.008Z,39.43
2016-05-15T12:37:22.042Z,39.98
2016-05-15T12:38:22.076Z,40.75
2016-05-15T12:39:21.985Z,41.51
2016-05-15T12:40:22.160Z,41.99
2016-05-15T12:41:22.053Z,42.18
2016-05-15T12:42:22.087Z,42.66
2016-05-15T12:43:22.136Z,42.66
2016-05-15T12:44:22.327Z,42.4
2016-05-15T12:45:22.375Z,42.05
2016-05-15T12:46:22.426Z,40.06
2016-05-15T12:47:22.319Z,38.14
2016-05-15T12:48:22.509Z,38.45
2016-05-15T12:49:23.028Z,37.09
2016-05-15T12:50:22.608Z,36.8
2016-05-15T12:51:22.642Z,36.88
2016-05-15T12:52:22.676Z,38.22
2016-05-15T12:53:22.569Z,40.31
2016-05-15T12:54:22.604Z,42.3
2016-05-15T12:55:22.794Z,43.33
2016-05-15T12:56:22.874Z,44.76
2016-05-15T12:57:22.877Z,46.46